Time;durP1;ratioP1;P1;durP2;ratioP2;P2;SDS_P1;SDS_P2;PMS_P1;PMS_P2;Temp;Humidity;BMP_temperature;BMP_pressure;BME280_temperature;BME280_humidity;BME280_pressure;Samples;Min_cycle;Max_cycle;Signal;HPM_P1;HPM_P2
2020/12/01 00:00:28;;;;;;;44.63;26.00;;;;;;;7.07;88.87;99736.53;5048032;28;20044;-80
2020/12/01 00:03:42;;;;;;;40.00;24.40;;;;;;;6.91;89.75;99733.53;5060128;28;20036;-80
2020/12/01 00:06:54;;;;;;;37.63;24.08;;;;;;;7.07;89.19;99741.00;5064614;28;20047;-80
2020/12/01 00:10:08;;;;;;;38.87;24.73;;;;;;;6.92;88.99;99740.50;5048711;28;20474;-80
2020/12/01 00:13:19;;;;;;;42.07;25.50;;;;;;;6.57;89.25;99746.16;5070986;28;20036;-80
2020/12/01 00:16:30;;;;;;;35.85;23.13;;;;;;;7.62;87.07;99734.31;5070125;28;20040;-80
2020/12/01 00:19:42;;;;;;;38.05;23.98;;;;;;;8.22;82.55;99729.75;5058954;28;20047;-80
2020/12/01 00:22:57;;;;;;;39.90;24.10;;;;;;;7.83;82.72;99727.09;5048416;28;20044;-80
2020/12/01 00:26:09;;;;;;;37.50;22.98;;;;;;;7.58;84.28;99724.94;5058899;28;20482;-81
2020/12/01 00:29:25;;;;;;;36.67;22.50;;;;;;;7.41;84.44;99710.53;5058829;28;20043;-81
2020/12/01 00:32:37;;;;;;;39.55;24.60;;;;;;;7.33;84.21;99720.13;5059917;28;20032;-80
2020/12/01 00:35:48;;;;;;;39.33;24.10;;;;;;;7.34;84.69;99703.25;5080825;28;20399;-80
2020/12/01 00:38:58;;;;;;;37.80;22.42;;;;;;;7.21;84.25;99703.47;5059078;28;20494;-80
2020/12/01 00:42:10;;;;;;;36.20;23.10;;;;;;;7.05;86.60;99709.31;5047956;28;20039;-81
2020/12/01 00:45:24;;;;;;;45.35;27.45;;;;;;;6.91;87.60;99711.47;5059401;28;20043;-80
2020/12/01 00:48:36;;;;;;;50.63;31.40;;;;;;;6.70;90.05;99709.72;5047595;28;20036;-80
2020/12/01 00:51:52;;;;;;;50.07;30.10;;;;;;;6.60;90.01;99705.34;5061079;28;20055;-81
2020/12/01 00:55:06;;;;;;;51.50;31.03;;;;;;;6.41;91.65;99696.28;5047986;28;20048;-80
2020/12/01 00:58:19;;;;;;;51.90;31.10;;;;;;;6.42;91.00;99690.03;5059776;28;20399;-81
2020/12/01 01:01:49;;;;;;;55.33;32.37;;;;;;;6.26;93.37;99702.88;5044682;28;20051;-80
2020/12/01 01:05:01;;;;;;;49.77;29.43;;;;;;;6.78;92.66;99696.63;5083853;28;20040;-81
2020/12/01 01:08:13;;;;;;;55.10;30.50;;;;;;;6.22;91.14;99693.53;5072543;28;20032;-80
2020/12/01 01:11:32;;;;;;;58.10;32.80;;;;;;;6.25;91.50;99693.28;5050362;28;20380;-80
2020/12/01 01:14:44;;;;;;;59.23;32.93;;;;;;;6.17;91.35;99685.09;5072371;28;20399;-80
2020/12/01 01:17:58;;;;;;;63.67;34.30;;;;;;;6.08;91.55;99681.44;5037210;28;20107;-81
2020/12/01 01:21:09;;;;;;;55.17;32.80;;;;;;;6.04;91.60;99682.66;5061524;28;20040;-80
2020/12/01 01:24:21;;;;;;;53.45;32.22;;;;;;;6.03;91.36;99673.03;5027641;28;20048;-80
2020/12/01 01:27:32;;;;;;;58.00;32.80;;;;;;;6.05;90.98;99665.81;5060472;28;20041;-80
2020/12/01 01:30:44;;;;;;;59.35;32.63;;;;;;;6.09;90.89;99669.03;5050027;28;20044;-80
2020/12/01 01:33:55;;;;;;;55.60;33.17;;;;;;;6.16;89.86;99662.25;5049777;28;20032;-80
2020/12/01 01:37:06;;;;;;;56.53;32.65;;;;;;;6.18;89.89;99665.59;5049912;28;20041;-80
2020/12/01 01:40:24;;;;;;;49.57;30.87;;;;;;;6.04;90.88;99668.56;5038309;28;20051;-80
2020/12/01 01:43:35;;;;;;;51.27;30.33;;;;;;;6.05;91.22;99659.66;5037579;28;20052;-80
2020/12/01 01:46:50;;;;;;;48.20;28.87;;;;;;;6.08;91.38;99667.34;5038646;28;20372;-80
2020/12/01 01:50:12;;;;;;;51.33;30.03;;;;;;;6.01;91.11;99669.69;5060097;28;20044;-80
2020/12/01 01:53:24;;;;;;;48.25;28.10;;;;;;;6.33;90.56;99663.47;5051555;28;20044;-80
2020/12/01 01:56:38;;;;;;;;;;;;;;;7.58;86.09;99662.09;5072000;28;20044;-80
2020/12/01 01:59:52;;;;;;;39.70;24.90;;;;;;;7.09;85.86;99665.63;5059737;28;19920;-80
2020/12/01 02:03:03;;;;;;;44.63;26.60;;;;;;;6.75;85.93;99661.59;5059755;28;20489;-80
2020/12/01 02:06:26;;;;;;;53.75;29.98;;;;;;;6.79;87.92;99655.91;5060479;28;20048;-80
2020/12/01 02:09:53;;;;;;;43.37;28.30;;;;;;;6.68;88.29;99657.81;5059654;28;20039;-81
2020/12/01 02:13:06;;;;;;;45.10;25.90;;;;;;;6.59;87.78;99653.31;5071022;28;20051;-80
2020/12/01 02:16:19;;;;;;;42.57;27.00;;;;;;;6.54;88.89;99645.75;5070944;28;20048;-81
2020/12/01 02:19:32;;;;;;;45.73;26.67;;;;;;;6.33;88.21;99637.84;5069659;28;20040;-80
2020/12/01 02:22:48;;;;;;;48.50;28.60;;;;;;;6.39;89.75;99637.31;5059450;28;20376;-80
2020/12/01 02:26:05;;;;;;;46.20;28.50;;;;;;;6.34;89.19;99639.53;5059996;28;20043;-80
2020/12/01 02:29:20;;;;;;;48.40;30.63;;;;;;;6.41;90.14;99638.00;5060001;28;20040;-80
2020/12/01 02:32:31;;;;;;;44.90;28.97;;;;;;;6.31;90.12;99631.81;5048682;28;20063;-79
2020/12/01 02:35:43;;;;;;;53.17;29.10;;;;;;;6.10;90.59;99625.72;5037200;28;20071;-80
2020/12/01 02:38:57;;;;;;;46.73;27.57;;;;;;;6.15;90.96;99626.16;5070371;28;20392;-80
2020/12/01 02:42:16;;;;;;;40.60;25.70;;;;;;;7.00;90.03;99613.41;5038325;28;20040;-80
2020/12/01 02:45:27;;;;;;;42.23;26.47;;;;;;;7.50;85.08;99595.63;5070892;28;20467;-81
2020/12/01 02:48:38;;;;;;;48.53;28.55;;;;;;;6.70;85.75;99609.00;5049120;28;20067;-80
2020/12/01 02:51:49;;;;;;;32.70;19.85;;;;;;;5.99;89.96;99602.81;5037452;28;20057;-80
2020/12/01 02:55:01;;;;;;;59.10;33.80;;;;;;;5.58;93.11;99598.28;5056139;28;20044;-80
2020/12/01 02:58:15;;;;;;;53.03;32.43;;;;;;;5.77;92.82;99594.97;5060066;28;20399;-80
2020/12/01 03:01:25;;;;;;;;;;;;;;;5.86;92.53;99586.25;5058928;28;20391;-80
2020/12/01 03:04:36;;;;;;;54.17;29.30;;;;;;;5.99;92.11;99580.78;5070344;28;19917;-81
2020/12/01 03:07:47;;;;;;;50.53;30.27;;;;;;;6.07;91.31;99579.16;5052870;28;20048;-80
2020/12/01 03:10:58;;;;;;;36.92;22.58;;;;;;;6.06;91.57;99579.28;5048475;28;20041;-80
2020/12/01 03:14:09;;;;;;;49.55;29.92;;;;;;;6.08;91.43;99575.53;5059767;28;20056;-80
2020/12/01 03:17:19;;;;;;;45.27;27.27;;;;;;;5.98;90.93;99563.22;5037195;28;20040;-80
2020/12/01 03:20:30;;;;;;;43.97;28.17;;;;;;;5.97;91.43;99558.91;5036779;28;20052;-80
2020/12/01 03:23:45;;;;;;;46.63;27.20;;;;;;;5.86;91.44;99551.00;5046211;28;20048;-80
2020/12/01 03:26:56;;;;;;;42.87;26.87;;;;;;;5.79;91.66;99543.56;5059007;28;20497;-80
2020/12/01 03:30:09;;;;;;;46.00;29.83;;;;;;;5.84;92.10;99543.19;5037029;28;20040;-81
2020/12/01 03:33:21;;;;;;;46.93;28.90;;;;;;;6.37;90.81;99530.66;5066596;28;20468;-81
2020/12/01 03:36:34;;;;;;;41.97;26.13;;;;;;;7.13;83.91;99529.16;5052029;28;20497;-80
2020/12/01 03:39:46;;;;;;;50.17;29.63;;;;;;;6.30;87.68;99526.88;5062002;28;20483;-80
2020/12/01 03:42:58;;;;;;;46.28;28.95;;;;;;;5.87;88.58;99513.00;5040458;28;20048;-80
2020/12/01 03:46:11;;;;;;;47.03;26.63;;;;;;;5.44;89.11;99522.72;5085183;28;20037;-81
2020/12/01 03:49:22;;;;;;;49.30;28.87;;;;;;;4.65;93.23;99518.72;5074045;28;20510;-80
2020/12/01 03:52:35;;;;;;;60.67;35.42;;;;;;;4.57;97.00;99509.75;5040586;28;20048;-81
2020/12/01 03:55:49;;;;;;;56.87;33.30;;;;;;;4.51;98.22;99513.69;5060974;28;20051;-80
2020/12/01 03:59:01;;;;;;;68.63;35.70;;;;;;;4.40;99.29;99515.50;5030259;28;20036;-80
2020/12/01 04:02:12;;;;;;;65.97;38.67;;;;;;;4.55;99.50;99516.94;5029650;28;20039;-79
2020/12/01 04:05:28;;;;;;;62.53;35.27;;;;;;;4.81;98.51;99517.47;5039550;28;20056;-80
2020/12/01 04:08:39;;;;;;;55.17;32.97;;;;;;;4.99;97.39;99516.81;5038669;28;20055;-79
2020/12/01 04:11:50;;;;;;;47.22;26.73;;;;;;;5.09;96.96;99514.25;5063130;28;20055;-80
2020/12/01 04:15:02;;;;;;;56.70;32.67;;;;;;;5.15;96.00;99499.69;5040284;28;20487;-79
2020/12/01 04:18:14;;;;;;;56.07;33.00;;;;;;;4.98;96.43;99512.50;5061094;28;20053;-79
2020/12/01 04:21:24;;;;;;;51.10;32.27;;;;;;;5.17;96.34;99509.19;5038657;28;20040;-79
2020/12/01 04:24:37;;;;;;;56.53;33.93;;;;;;;5.38;96.10;99511.84;5051085;28;20052;-80
2020/12/01 04:27:50;;;;;;;53.27;31.17;;;;;;;5.68;92.28;99496.03;5050457;28;20051;-80
2020/12/01 04:31:01;;;;;;;55.33;31.37;;;;;;;5.78;92.14;99504.84;5050252;28;20056;-81
2020/12/01 04:34:12;;;;;;;50.78;31.98;;;;;;;5.90;91.88;99496.91;5072853;28;20039;-80
2020/12/01 04:37:23;;;;;;;45.47;28.08;;;;;;;6.02;91.39;99501.09;5060440;28;20048;-81
2020/12/01 04:40:40;;;;;;;50.20;29.60;;;;;;;6.12;92.21;99494.91;5050902;28;20475;-81
2020/12/01 04:44:00;;;;;;;44.33;26.90;;;;;;;6.03;91.39;99489.53;5072728;28;20491;-81
2020/12/01 04:47:22;;;;;;;44.37;29.17;;;;;;;6.13;91.34;99480.69;5027491;28;20063;-81
2020/12/01 04:50:46;;;;;;;44.77;27.23;;;;;;;6.09;90.92;99481.09;5061125;28;20037;-81
2020/12/01 04:54:07;;;;;;;42.47;27.20;;;;;;;6.06;91.42;99487.47;5046491;28;20052;-81
2020/12/01 04:57:51;;;;;;;45.10;27.10;;;;;;;6.08;92.12;99492.66;5025424;28;20056;-80
2020/12/01 05:01:18;;;;;;;48.47;28.37;;;;;;;6.10;92.46;99493.34;5034685;28;20396;-80
2020/12/01 05:04:48;;;;;;;52.77;32.33;;;;;;;6.12;92.42;99494.06;5030537;28;20041;-80
2020/12/01 05:08:30;;;;;;;48.40;28.60;;;;;;;5.86;91.55;99506.88;5040821;28;20040;-80
2020/12/01 05:11:51;;;;;;;43.93;26.37;;;;;;;6.46;95.60;99495.44;5047757;28;20053;-80
2020/12/01 05:15:16;;;;;;;39.27;24.40;;;;;;;7.46;85.47;99476.63;5041569;28;20387;-80
2020/12/01 05:18:33;;;;;;;47.77;26.50;;;;;;;6.86;86.75;99476.81;5029731;28;20395;-80
2020/12/01 05:21:45;;;;;;;43.87;27.87;;;;;;;6.51;88.51;99482.59;5055733;28;20041;-81
2020/12/01 05:24:56;;;;;;;43.07;26.07;;;;;;;6.44;89.07;99470.06;5041251;28;20040;-81
2020/12/01 05:28:18;;;;;;;42.20;26.53;;;;;;;6.34;89.25;99464.75;5029728;28;20463;-81
2020/12/01 05:31:49;;;;;;;42.53;26.13;;;;;;;6.31;89.55;99457.06;5029140;28;20045;-80
2020/12/01 05:35:17;;;;;;;42.00;26.40;;;;;;;6.11;89.63;99457.97;5040906;28;20037;-81
2020/12/01 05:38:28;;;;;;;43.63;27.73;;;;;;;6.05;90.23;99458.50;5040500;28;20037;-80
2020/12/01 05:41:41;;;;;;;45.27;27.37;;;;;;;5.96;90.34;99454.00;5041019;28;20041;-80
2020/12/01 05:45:01;;;;;;;45.97;27.77;;;;;;;5.82;90.93;99442.78;5029763;28;20040;-80
2020/12/01 05:48:25;;;;;;;48.47;27.93;;;;;;;5.89;91.52;99445.78;5040452;28;20060;-80
2020/12/01 05:51:42;;;;;;;45.47;27.87;;;;;;;5.81;91.58;99433.16;5050461;28;20060;-80
2020/12/01 05:55:17;;;;;;;47.50;30.30;;;;;;;5.73;92.06;99434.81;5071589;28;20036;-80
2020/12/01 05:58:39;;;;;;;44.27;28.17;;;;;;;6.62;91.63;99431.31;5049340;28;20479;-80
2020/12/01 06:02:03;;;;;;;45.80;27.37;;;;;;;7.03;84.67;99422.28;5060990;28;20037;-80
2020/12/01 06:05:21;;;;;;;48.80;27.93;;;;;;;5.59;91.62;99432.50;5047326;28;20049;-82
2020/12/01 06:08:51;;;;;;;55.57;33.83;;;;;;;5.20;95.19;99432.25;5038357;28;20048;-81
2020/12/01 06:12:19;;;;;;;58.20;35.33;;;;;;;5.57;94.88;99423.84;5040745;28;20060;-81
2020/12/01 06:15:30;;;;;;;54.73;31.40;;;;;;;5.80;93.77;99418.25;5039504;28;20081;-81
2020/12/01 06:19:13;;;;;;;47.83;29.92;;;;;;;5.94;93.39;99416.25;5038168;28;20360;-81
2020/12/01 06:22:43;;;;;;;55.07;32.53;;;;;;;6.15;94.52;99414.34;5048852;28;20040;-80
2020/12/01 06:26:18;;;;;;;49.80;29.20;;;;;;;6.10;92.33;99424.53;5070462;28;20053;-80
2020/12/01 06:29:48;;;;;;;52.37;29.17;;;;;;;5.96;92.14;99432.84;5070645;28;20045;-81
2020/12/01 06:33:32;;;;;;;50.40;30.07;;;;;;;6.06;92.07;99418.66;5052039;28;20052;-80
2020/12/01 06:37:15;;;;;;;53.17;31.27;;;;;;;6.16;92.08;99414.22;5070778;28;20051;-80
2020/12/01 06:40:50;;;;;;;52.17;29.77;;;;;;;6.20;92.02;99417.44;5040618;28;20048;-80
2020/12/01 06:44:01;;;;;;;55.17;32.23;;;;;;;6.00;92.46;99421.88;5040192;28;20048;-80
2020/12/01 06:47:14;;;;;;;51.57;28.87;;;;;;;6.28;93.25;99422.91;5070721;28;20028;-80
2020/12/01 06:50:26;;;;;;;53.87;29.73;;;;;;;6.46;91.81;99418.63;5048940;28;20048;-80
2020/12/01 06:53:41;;;;;;;51.53;30.27;;;;;;;6.66;91.75;99410.69;5081821;28;20476;-80
2020/12/01 06:57:15;;;;;;;53.23;30.87;;;;;;;6.31;91.27;99397.97;5048307;28;20044;-80
2020/12/01 07:00:30;;;;;;;58.57;33.37;;;;;;;6.38;90.95;99394.63;5046916;28;20044;-81
2020/12/01 07:03:42;;;;;;;56.40;30.77;;;;;;;6.43;90.51;99389.75;5059155;28;20037;-81
2020/12/01 07:06:59;;;;;;;53.47;31.05;;;;;;;6.63;91.63;99392.41;5059244;28;20045;-81
2020/12/01 07:10:27;;;;;;;53.80;32.43;;;;;;;6.89;90.62;99388.22;5050900;28;20111;-80
2020/12/01 07:13:58;;;;;;;49.67;30.57;;;;;;;7.02;89.62;99388.78;5053652;28;20044;-80
2020/12/01 07:17:24;;;;;;;49.55;30.05;;;;;;;7.15;90.07;99381.38;5040151;28;20045;-80
2020/12/01 07:20:40;;;;;;;49.27;30.97;;;;;;;7.14;89.65;99371.72;5050833;28;20487;-80
2020/12/01 07:23:56;;;;;;;54.00;33.83;;;;;;;7.04;88.02;99378.03;5050513;28;20052;-80
2020/12/01 07:27:35;;;;;;;58.00;35.15;;;;;;;6.86;89.08;99384.03;5053837;28;20507;-81
2020/12/01 07:30:52;;;;;;;54.43;34.50;;;;;;;6.97;89.87;99388.34;5052068;28;20093;-80
2020/12/01 07:34:08;;;;;;;53.08;31.40;;;;;;;7.81;86.65;99383.09;5057442;28;20048;-80
2020/12/01 07:37:38;;;;;;;60.10;33.00;;;;;;;7.31;84.80;99387.91;5085417;28;20407;-80
2020/12/01 07:40:55;;;;;;;56.05;33.80;;;;;;;7.20;87.40;99376.44;5063107;28;20063;-81
2020/12/01 07:44:14;;;;;;;55.90;32.00;;;;;;;7.10;89.00;99374.81;5061361;28;20499;-81
2020/12/01 07:47:29;;;;;;;48.45;30.95;;;;;;;7.20;88.43;99373.81;5049717;28;20056;-80
2020/12/01 07:50:40;;;;;;;49.03;31.50;;;;;;;7.31;88.32;99383.44;5074408;28;20040;-80
2020/12/01 07:53:53;;;;;;;45.87;28.57;;;;;;;7.31;87.41;99374.63;5051414;28;20036;-80
2020/12/01 07:57:22;;;;;;;51.75;30.85;;;;;;;7.47;87.32;99366.91;5051148;28;20472;-80
2020/12/01 08:00:35;;;;;;;52.10;32.40;;;;;;;7.58;86.57;99361.41;5062794;28;20037;-80
2020/12/01 08:03:48;;;;;;;55.45;32.25;;;;;;;7.65;87.37;99357.22;5029384;28;20060;-80
2020/12/01 08:07:04;;;;;;;;;;;;;;;7.52;87.78;99357.53;5051903;28;20036;-80
2020/12/01 08:10:20;;;;;;;49.65;30.70;;;;;;;7.55;87.33;99361.72;5052454;28;20342;-80
2020/12/01 08:13:35;;;;;;;49.13;30.27;;;;;;;7.77;87.91;99344.59;5041308;28;20059;-80
2020/12/01 08:16:59;;;;;;;52.85;31.92;;;;;;;7.75;84.83;99339.41;5051235;28;20063;-80
2020/12/01 08:20:18;;;;;;;51.97;34.15;;;;;;;7.64;85.46;99325.50;5041704;28;20063;-80
2020/12/01 08:23:35;;;;;;;49.70;32.65;;;;;;;7.68;84.93;99322.38;5084829;28;20613;-81
2020/12/01 08:26:50;;;;;;;56.65;34.08;;;;;;;7.73;85.57;99306.03;5050793;28;20041;-80
2020/12/01 08:30:08;;;;;;;58.78;34.53;;;;;;;7.79;85.87;99313.41;5051158;28;20047;-80
2020/12/01 08:34:01;;;;;;;62.42;34.28;;;;;;;7.70;84.66;99307.16;5062096;28;20043;-80
2020/12/01 08:37:47;;;;;;;64.65;33.80;;;;;;;7.66;84.93;99304.97;5050914;28;20044;-80
2020/12/01 08:41:21;;;;;;;60.55;34.92;;;;;;;7.71;84.58;99295.56;5054069;28;20041;-81
2020/12/01 08:44:40;;;;;;;54.10;33.67;;;;;;;7.67;84.00;99304.78;5072855;28;20052;-81
2020/12/01 08:47:59;;;;;;;59.33;34.63;;;;;;;7.70;84.40;99295.72;5072657;28;20415;-80
2020/12/01 08:51:18;;;;;;;66.03;36.03;;;;;;;7.82;83.42;99294.53;5065268;28;20055;-80
2020/12/01 08:54:36;;;;;;;58.58;33.55;;;;;;;7.63;85.54;99297.28;5031780;28;20048;-79
2020/12/01 08:58:11;;;;;;;64.93;34.08;;;;;;;7.64;86.43;99299.81;5052893;28;20063;-81
2020/12/01 09:01:23;;;;;;;60.47;34.58;;;;;;;7.87;84.24;99292.28;5058589;28;20505;-80
2020/12/01 09:04:36;;;;;;;55.80;34.08;;;;;;;7.86;83.57;99290.59;5051364;28;20047;-81
2020/12/01 09:07:51;;;;;;;57.60;32.75;;;;;;;7.83;84.29;99285.56;5062996;28;20051;-80
2020/12/01 09:11:37;;;;;;;59.08;33.25;;;;;;;7.90;82.60;99286.66;5057986;28;20036;-80
2020/12/01 09:21:59;;;;;;;62.50;35.93;;;;;;;7.37;86.53;99286.50;5069963;28;20032;-80
2020/12/01 09:25:29;;;;;;;64.90;35.80;;;;;;;7.33;85.17;99291.28;5062500;28;20047;-80
2020/12/01 09:28:50;;;;;;;61.60;35.50;;;;;;;7.12;87.00;99277.41;5069111;28;20039;-80
2020/12/01 09:32:05;;;;;;;67.20;35.70;;;;;;;7.35;86.32;99283.16;5073805;28;20063;-80
2020/12/01 09:35:19;;;;;;;72.47;38.10;;;;;;;7.32;86.17;99271.03;5040980;28;20036;-80
2020/12/01 09:38:30;;;;;;;65.50;36.47;;;;;;;7.45;84.77;99266.22;5057533;28;20044;-80
2020/12/01 09:41:51;;;;;;;52.55;28.45;;;;;;;7.33;85.60;99261.25;5070005;28;20036;-80
2020/12/01 09:45:16;;;;;;;61.70;36.43;;;;;;;7.63;85.59;99255.66;5060096;28;20067;-80
2020/12/01 09:48:34;;;;;;;56.80;33.83;;;;;;;7.88;83.69;99246.16;5050892;28;20047;-80
2020/12/01 09:51:57;;;;;;;60.40;34.22;;;;;;;8.12;82.92;99241.09;5057611;28;20059;-81
2020/12/01 09:55:24;;;;;;;65.73;34.63;;;;;;;7.84;83.90;99242.13;5057558;28;20501;-80
2020/12/01 10:34:01;;;;;;;90.23;45.43;;;;;;;7.76;82.87;99173.88;5079823;28;20040;-80
2020/12/01 10:36:04;;;;;;;90.00;45.33;;;;;;;7.84;82.08;99179.25;5051117;28;20039;-81
2020/12/01 10:39:16;;;;;;;74.00;41.63;;;;;;;8.07;80.09;99173.47;5079020;28;20043;-81
2020/12/01 10:42:28;;;;;;;76.30;41.80;;;;;;;7.94;78.63;99166.72;5045573;28;20050;-81
2020/12/01 10:45:40;;;;;;;76.63;43.90;;;;;;;7.72;79.29;99161.88;5051023;28;20059;-81
2020/12/01 10:48:52;;;;;;;89.15;49.20;;;;;;;7.85;82.08;99150.88;5045138;28;20043;-81
2020/12/01 10:52:04;;;;;;;74.00;41.20;;;;;;;8.21;78.83;99155.16;5049152;28;20055;-81
2020/12/01 10:55:27;;;;;;;74.70;42.00;;;;;;;8.00;78.10;99156.50;5060315;28;20143;-81
2020/12/01 10:58:38;;;;;;;81.45;46.53;;;;;;;7.81;79.42;99153.00;5059826;28;20044;-81
2020/12/01 11:01:48;;;;;;;70.13;39.10;;;;;;;7.84;78.62;99150.06;5047094;28;20040;-80
2020/12/01 11:05:00;;;;;;;;;;;;;;;7.67;79.44;99145.56;5049921;28;20044;-81
2020/12/01 11:08:13;;;;;;;64.37;34.87;;;;;;;8.00;77.90;99125.47;5058862;28;19916;-81
2020/12/01 11:11:24;;;;;;;66.63;35.60;;;;;;;8.18;76.51;99122.75;5058527;28;20059;-80
2020/12/01 11:14:38;;;;;;;57.42;32.92;;;;;;;8.39;75.62;99119.78;5060014;28;20059;-80
2020/12/01 11:17:50;;;;;;;58.33;35.45;;;;;;;8.67;74.82;99116.78;5070165;28;20056;-81
2020/12/01 11:21:03;;;;;;;52.75;31.73;;;;;;;8.84;72.63;99101.75;5048388;28;20413;-81
2020/12/01 11:24:16;;;;;;;49.20;28.70;;;;;;;8.66;73.79;99099.19;5035748;28;20048;-81
2020/12/01 11:27:29;;;;;;;52.00;30.70;;;;;;;8.43;76.70;99099.88;5058657;28;20044;-81
2020/12/01 11:30:41;;;;;;;52.28;30.25;;;;;;;8.92;73.30;99092.97;5058225;28;20391;-80
2020/12/01 11:34:08;;;;;;;49.25;28.73;;;;;;;8.66;71.50;99088.53;5038163;28;20468;-80
2020/12/01 11:37:23;;;;;;;49.80;28.33;;;;;;;8.50;75.17;99077.00;5038917;28;20064;-80
2020/12/01 11:40:35;;;;;;;47.72;29.05;;;;;;;8.66;73.28;99077.06;5058753;28;20040;-81
2020/12/01 11:43:48;;;;;;;52.53;30.40;;;;;;;8.46;75.41;99070.34;5069978;28;20039;-80
2020/12/01 11:46:59;;;;;;;56.40;31.35;;;;;;;8.45;74.76;99069.50;5037593;28;20036;-81
2020/12/01 11:50:12;;;;;;;55.58;32.72;;;;;;;8.09;76.82;99058.16;5046755;28;20499;-81
2020/12/01 11:53:23;;;;;;;58.17;32.72;;;;;;;8.10;76.55;99062.47;5058584;28;20045;-80
2020/12/01 11:56:36;;;;;;;52.95;31.55;;;;;;;8.07;76.55;99060.13;5052063;28;20048;-80
2020/12/01 11:59:50;;;;;;;67.47;32.45;;;;;;;8.02;76.90;99064.25;5063530;28;20037;-81
2020/12/01 12:03:03;;;;;;;56.63;33.75;;;;;;;7.86;76.79;99054.34;5050717;28;20483;-81
2020/12/01 12:06:17;;;;;;;57.53;33.28;;;;;;;7.96;76.58;99042.63;5067541;28;20037;-80
2020/12/01 12:09:29;;;;;;;57.85;34.55;;;;;;;7.78;79.48;99038.38;5040887;28;20041;-80
2020/12/01 12:12:41;;;;;;;57.95;34.70;;;;;;;7.63;79.07;99040.72;5062593;28;20040;-80
2020/12/01 12:15:54;;;;;;;56.15;33.17;;;;;;;7.75;77.97;99046.63;5038755;28;20048;-81
2020/12/01 12:19:07;;;;;;;57.57;33.97;;;;;;;7.78;77.06;99041.03;5029305;28;20040;-81
2020/12/01 12:22:19;;;;;;;53.57;33.33;;;;;;;7.54;78.69;99042.50;5061514;28;20039;-80
2020/12/01 12:25:30;;;;;;;55.47;33.03;;;;;;;7.28;78.82;99046.06;5062345;28;20037;-80
2020/12/01 12:28:42;;;;;;;54.25;32.10;;;;;;;7.38;78.28;99041.50;5039509;28;20052;-81
2020/12/01 12:31:54;;;;;;;57.50;31.23;;;;;;;7.37;77.71;99035.38;5039256;28;20056;-81
2020/12/01 12:35:07;;;;;;;54.30;32.97;;;;;;;7.25;78.77;99032.13;5062578;28;20040;-81
2020/12/01 12:38:20;;;;;;;57.10;31.57;;;;;;;7.32;78.36;99028.84;5059871;28;20052;-81
2020/12/01 12:41:32;;;;;;;53.77;29.87;;;;;;;7.37;77.14;99023.94;5044819;28;20052;-81
2020/12/01 12:44:43;;;;;;;50.40;29.87;;;;;;;7.11;78.13;99022.03;5061966;28;20051;-80
2020/12/01 12:47:55;;;;;;;46.33;28.00;;;;;;;7.19;77.29;99018.66;5048757;28;20048;-81
2020/12/01 12:51:07;;;;;;;45.43;27.30;;;;;;;7.13;78.25;99024.53;5063688;28;20037;-81
2020/12/01 12:54:19;;;;;;;44.30;26.70;;;;;;;7.28;78.21;99024.84;5051848;28;20052;-80
2020/12/01 12:57:32;;;;;;;46.57;25.33;;;;;;;7.16;77.41;99022.44;5059169;28;20070;-80
2020/12/01 13:00:44;;;;;;;43.53;24.92;;;;;;;7.30;78.50;99013.13;5054050;28;20040;-80
2020/12/01 13:03:54;;;;;;;;;;;;;;;7.34;76.68;99013.63;5070221;28;20040;-81
2020/12/01 13:07:06;;;;;;;43.80;24.97;;;;;;;7.35;76.23;99016.13;5052424;28;19920;-80
2020/12/01 13:10:19;;;;;;;39.93;23.67;;;;;;;7.28;76.06;99006.28;5041632;28;20067;-81
2020/12/01 13:13:31;;;;;;;38.17;22.93;;;;;;;7.33;75.75;99007.47;5080573;28;20047;-81
2020/12/01 13:16:53;;;;;;;37.73;22.97;;;;;;;7.30;75.32;99001.66;5081466;28;20032;-81
2020/12/01 13:20:07;;;;;;;32.42;18.02;;;;;;;6.94;76.57;99000.84;5041657;28;20055;-81
2020/12/01 13:23:19;;;;;;;39.60;22.17;;;;;;;6.99;76.43;98996.72;5069743;28;20049;-80
2020/12/01 13:26:32;;;;;;;43.15;23.75;;;;;;;6.94;76.12;98990.25;5041179;28;20048;-80
2020/12/01 13:29:44;;;;;;;35.43;21.43;;;;;;;6.91;76.91;98979.94;5053303;28;20048;-80
2020/12/01 13:32:54;;;;;;;40.27;21.93;;;;;;;6.83;77.13;98980.69;5068922;28;20047;-80
2020/12/01 13:36:06;;;;;;;34.63;21.00;;;;;;;7.09;75.77;98978.94;5041128;28;20056;-80
2020/12/01 13:39:18;;;;;;;39.27;22.40;;;;;;;7.01;76.42;98981.50;5058591;28;20040;-80
2020/12/01 13:42:28;;;;;;;;;;;;;;;6.79;76.88;98971.38;5051145;28;20047;-80
2020/12/01 13:45:41;;;;;;;34.70;21.60;;;;;;;6.69;78.50;98975.91;5040285;28;20412;-80
2020/12/01 13:48:53;;;;;;;45.17;21.43;;;;;;;6.88;77.59;98975.75;5059774;28;20040;-80
2020/12/01 13:52:06;;;;;;;36.43;21.37;;;;;;;6.82;77.65;98971.06;5039756;28;20480;-80
2020/12/01 13:55:18;;;;;;;41.10;22.20;;;;;;;6.75;77.93;98968.16;5051310;28;20384;-80
2020/12/01 13:58:29;;;;;;;28.53;18.97;;;;;;;7.03;75.79;98976.91;5039426;28;20048;-80
2020/12/01 14:01:41;;;;;;;31.42;19.08;;;;;;;6.78;77.65;98973.19;5028989;28;20052;-80
2020/12/01 14:04:54;;;;;;;31.13;17.70;;;;;;;6.91;74.68;98974.63;5030967;28;20033;-80
2020/12/01 14:08:06;;;;;;;26.60;18.00;;;;;;;6.77;75.17;98979.47;5029232;28;20037;-80
2020/12/01 14:11:20;;;;;;;25.47;16.63;;;;;;;6.55;75.82;98981.69;5017039;28;20372;-80
2020/12/01 14:14:32;;;;;;;26.07;15.80;;;;;;;6.71;74.04;98987.19;5040065;28;20052;-81
2020/12/01 14:17:43;;;;;;;27.33;16.77;;;;;;;6.78;73.76;98988.25;5026191;28;20522;-80
2020/12/01 14:20:54;;;;;;;25.23;13.18;;;;;;;6.46;75.64;98986.91;5029761;28;20483;-81
2020/12/01 14:24:07;;;;;;;27.48;16.02;;;;;;;6.63;74.02;98987.06;5030300;28;20041;-81
2020/12/01 14:27:23;;;;;;;23.37;15.40;;;;;;;6.62;74.01;98986.25;5040837;28;20048;-80
2020/12/01 14:30:35;;;;;;;27.73;16.07;;;;;;;6.75;72.73;98980.59;5040143;28;20488;-81
2020/12/01 14:33:47;;;;;;;24.20;15.60;;;;;;;6.76;72.24;98976.97;5040244;28;20064;-81
2020/12/01 14:36:59;;;;;;;26.13;15.37;;;;;;;6.43;73.53;98973.97;5040762;28;20513;-80
2020/12/01 14:40:12;;;;;;;27.30;15.93;;;;;;;6.41;74.85;98975.91;5051027;28;20051;-81
2020/12/01 14:43:25;;;;;;;21.97;14.57;;;;;;;6.33;74.97;98978.47;5050118;28;20045;-80
2020/12/01 14:47:08;;;;;;;24.93;15.37;;;;;;;6.56;72.14;98978.06;5062048;28;20056;-81
2020/12/01 14:50:45;;;;;;;25.77;15.77;;;;;;;6.71;71.20;98973.94;5031490;28;20044;-80
2020/12/01 14:54:05;;;;;;;29.30;15.33;;;;;;;6.55;71.95;98968.47;5050334;28;20048;-81
2020/12/01 14:57:29;;;;;;;27.27;15.83;;;;;;;6.38;73.56;98968.25;5022608;28;20528;-81
2020/12/01 15:01:03;;;;;;;24.17;14.27;;;;;;;6.29;73.28;98979.75;5039673;28;20075;-81
2020/12/01 15:04:18;;;;;;;26.93;15.33;;;;;;;6.39;72.53;98971.75;5026945;28;20063;-81
2020/12/01 15:07:54;;;;;;;27.53;15.57;;;;;;;6.30;73.29;98968.19;5019183;28;20040;-81
2020/12/01 15:11:30;;;;;;;27.80;15.53;;;;;;;6.42;72.49;98968.81;5038291;28;20041;-81
2020/12/01 15:14:44;;;;;;;24.40;14.90;;;;;;;6.37;72.55;98976.38;5030600;28;20052;-81
2020/12/01 15:17:58;;;;;;;24.27;15.60;;;;;;;6.31;72.85;98976.94;5028983;28;20041;-81
2020/12/01 15:21:14;;;;;;;26.83;14.53;;;;;;;6.34;72.60;98969.56;5038621;28;20045;-81
2020/12/01 15:24:32;;;;;;;28.90;14.63;;;;;;;6.28;72.98;98971.94;5017540;28;20052;-81
2020/12/01 15:27:44;;;;;;;22.50;14.43;;;;;;;6.23;73.55;98968.91;5016865;28;20055;-81
2020/12/01 15:30:55;;;;;;;24.65;15.75;;;;;;;6.21;72.67;98966.41;5041669;28;20048;-81
2020/12/01 15:34:10;;;;;;;24.50;15.87;;;;;;;6.28;72.93;98967.47;5032213;28;20056;-81
2020/12/01 15:37:25;;;;;;;25.73;14.73;;;;;;;6.22;73.79;98962.78;5043319;28;20052;-81
2020/12/01 15:40:50;;;;;;;27.87;16.37;;;;;;;6.09;74.10;98968.41;5041740;28;20516;-81
2020/12/01 15:44:09;;;;;;;22.70;14.67;;;;;;;6.14;73.68;98960.03;5036814;28;20542;-80
2020/12/01 15:47:24;;;;;;;23.93;15.73;;;;;;;6.07;73.57;98965.09;4998472;28;20068;-81
2020/12/01 15:50:42;;;;;;;25.90;16.33;;;;;;;5.80;74.31;98960.53;5021540;28;20049;-81
2020/12/01 15:54:01;;;;;;;28.53;14.93;;;;;;;5.90;74.18;98954.44;5021470;28;20053;-81
2020/12/01 15:57:44;;;;;;;23.60;14.83;;;;;;;5.93;73.29;98948.84;5043145;28;20064;-81